Time;durP1;ratioP1;P1;durP2;ratioP2;P2;SDS_P1;SDS_P2;PMS_P1;PMS_P2;Temp;Humidity;BMP_temperature;BMP_pressure;BME280_temperature;BME280_humidity;BME280_pressure;Samples;Min_cycle;Max_cycle;Signal;HPM_P1;HPM_P2
2024/01/31 00:01:46;;;;;;;2.45;1.33;;;;;;;27.08;31.91;103450.09;5086272;28;20120;-45
2024/01/31 00:04:11;;;;;;;3.08;1.23;;;;;;;27.00;32.02;103466.25;5078783;28;20091;-40
2024/01/31 00:06:37;;;;;;;7.53;1.50;;;;;;;26.95;32.19;103455.06;5067483;28;20067;-43
2024/01/31 00:09:03;;;;;;;2.65;1.55;;;;;;;26.92;32.20;103466.78;5083405;28;20380;-41
2024/01/31 00:11:29;;;;;;;3.08;1.42;;;;;;;26.88;32.57;103468.44;5080837;28;20030;-44
2024/01/31 00:13:55;;;;;;;4.88;1.33;;;;;;;26.81;32.45;103463.13;5063096;28;20431;-41
2024/01/31 00:16:21;;;;;;;5.68;1.70;;;;;;;26.79;32.49;103461.75;5079687;28;20028;-42
2024/01/31 00:18:46;;;;;;;1.95;1.45;;;;;;;26.68;32.63;103467.25;5086305;28;20024;-43
2024/01/31 00:21:12;;;;;;;1.35;1.17;;;;;;;26.67;32.35;103460.03;5083401;28;20082;-42
2024/01/31 00:23:37;;;;;;;3.10;1.33;;;;;;;26.68;32.75;103461.69;5078382;28;20027;-42
2024/01/31 00:26:03;;;;;;;3.55;1.40;;;;;;;26.57;32.93;103459.97;5082339;28;20395;-42
2024/01/31 00:28:28;;;;;;;2.92;1.10;;;;;;;26.55;32.93;103451.09;5069462;28;20024;-42
2024/01/31 00:30:53;;;;;;;3.78;1.40;;;;;;;26.51;32.96;103464.69;5075144;28;20024;-41
2024/01/31 00:33:19;;;;;;;3.17;1.67;;;;;;;26.48;33.04;103462.44;5073143;28;20020;-42
2024/01/31 00:35:44;;;;;;;7.47;1.20;;;;;;;26.49;32.73;103464.13;5084126;28;20024;-40
2024/01/31 00:38:10;;;;;;;5.32;1.70;;;;;;;26.44;32.94;103469.69;5073237;28;20023;-41
2024/01/31 00:40:35;;;;;;;11.60;2.28;;;;;;;26.45;32.94;103463.00;5083169;28;20038;-44
2024/01/31 00:43:01;;;;;;;4.22;1.63;;;;;;;26.43;32.64;103468.00;5086673;28;20073;-42
2024/01/31 00:45:28;;;;;;;2.42;1.30;;;;;;;26.38;33.05;103459.66;5087676;28;20056;-42
2024/01/31 00:47:53;;;;;;;3.53;1.15;;;;;;;26.35;32.69;103462.97;5066631;28;20176;-44
2024/01/31 00:50:19;;;;;;;4.82;1.70;;;;;;;26.33;32.97;103466.00;5087146;28;20058;-46
2024/01/31 00:52:44;;;;;;;2.47;1.23;;;;;;;26.40;32.73;103455.47;5085444;28;20042;-43
2024/01/31 00:55:10;;;;;;;3.20;1.20;;;;;;;26.39;32.88;103455.75;5059907;28;20127;-43
2024/01/31 00:57:35;;;;;;;5.78;1.63;;;;;;;26.36;32.81;103457.13;5074477;28;20077;-43
2024/01/31 01:00:04;;;;;;;3.53;1.30;;;;;;;26.30;32.91;103449.03;5065384;28;20030;-45
2024/01/31 01:02:30;;;;;;;2.92;1.30;;;;;;;26.31;33.00;103445.97;5078316;28;20517;-46
2024/01/31 01:04:55;;;;;;;5.10;1.27;;;;;;;26.27;32.85;103455.97;5060538;28;20028;-40
2024/01/31 01:07:21;;;;;;;4.32;1.67;;;;;;;26.27;33.01;103459.59;5076542;28;20114;-42
2024/01/31 01:09:46;;;;;;;4.13;1.10;;;;;;;26.27;32.84;103461.53;5079602;28;20027;-43
2024/01/31 01:12:11;;;;;;;4.78;1.30;;;;;;;26.23;32.80;103463.22;5060857;28;20372;-44
2024/01/31 01:14:37;;;;;;;4.90;1.90;;;;;;;26.27;32.64;103456.81;5087605;28;20086;-45
2024/01/31 01:17:04;;;;;;;2.70;1.33;;;;;;;26.22;33.30;103458.75;5083295;28;20053;-47
2024/01/31 01:19:29;;;;;;;6.07;1.40;;;;;;;26.15;33.27;103461.75;5083674;28;20374;-42
2024/01/31 01:21:54;;;;;;;1.60;1.20;;;;;;;26.22;33.00;103455.97;5084868;28;20034;-45
2024/01/31 01:24:20;;;;;;;4.18;1.40;;;;;;;26.19;33.10;103450.94;5070015;28;20036;-46
2024/01/31 01:26:45;;;;;;;4.20;1.42;;;;;;;26.19;33.12;103454.56;5073907;28;20100;-45
2024/01/31 01:29:10;;;;;;;2.47;1.35;;;;;;;26.14;33.06;103450.91;5071861;28;20024;-50
2024/01/31 01:31:36;;;;;;;4.72;1.35;;;;;;;26.10;32.92;103456.19;5082177;28;20025;-46
2024/01/31 01:34:01;;;;;;;2.85;1.20;;;;;;;26.12;33.23;103459.53;5081640;28;20335;-50
2024/01/31 01:36:27;;;;;;;1.67;1.10;;;;;;;26.10;32.87;103462.56;5065456;28;20024;-47
2024/01/31 01:38:52;;;;;;;2.03;1.27;;;;;;;26.05;32.99;103442.22;5085688;28;20115;-49
2024/01/31 01:41:18;;;;;;;2.80;1.27;;;;;;;26.03;33.02;103442.50;5077174;28;20036;-48
2024/01/31 01:43:43;;;;;;;1.70;1.15;;;;;;;26.03;33.33;103436.97;5078676;28;20028;-48
2024/01/31 01:46:20;;;;;;;5.22;1.48;;;;;;;26.03;33.20;103444.44;5085905;28;20103;-48
2024/01/31 01:48:47;;;;;;;3.42;1.40;;;;;;;25.99;33.14;103457.22;5087416;28;20392;-50
2024/01/31 01:51:17;;;;;;;2.63;1.20;;;;;;;26.06;33.32;103449.47;5065312;28;20432;-49
2024/01/31 01:53:44;;;;;;;3.35;1.10;;;;;;;26.08;32.76;103442.56;5080138;28;20036;-48
2024/01/31 01:56:10;;;;;;;5.38;1.73;;;;;;;26.03;32.95;103439.72;5083201;28;20495;-46
2024/01/31 01:58:36;;;;;;;3.05;1.55;;;;;;;25.99;32.97;103449.69;5081558;28;20028;-45
2024/01/31 02:01:03;;;;;;;3.00;1.20;;;;;;;26.01;33.07;103455.81;5068564;28;20461;-49
2024/01/31 02:03:29;;;;;;;1.40;1.00;;;;;;;26.03;32.85;103447.22;5081193;28;20043;-48
2024/01/31 02:05:57;;;;;;;2.58;1.67;;;;;;;26.05;32.95;103451.41;5084828;28;20060;-48
2024/01/31 02:08:23;;;;;;;2.75;1.10;;;;;;;25.94;33.03;103444.94;5055342;28;20273;-46
2024/01/31 02:10:48;;;;;;;2.38;1.10;;;;;;;25.91;33.08;103442.72;5074057;28;20094;-48
2024/01/31 02:13:13;;;;;;;2.42;0.98;;;;;;;25.97;32.94;103439.97;5080833;28;20076;-48
2024/01/31 02:15:50;;;;;;;2.05;1.10;;;;;;;25.89;32.87;103428.25;5073883;28;20032;-49
2024/01/31 02:18:15;;;;;;;2.15;0.90;;;;;;;25.90;32.82;103424.38;5084063;28;20028;-50
2024/01/31 02:20:41;;;;;;;0.98;0.80;;;;;;;25.90;32.82;103421.59;5083027;28;20524;-45
2024/01/31 02:23:07;;;;;;;2.67;1.08;;;;;;;25.88;32.81;103423.78;5061096;28;20041;-46
2024/01/31 02:25:32;;;;;;;0.88;0.77;;;;;;;25.95;32.78;103420.78;5061335;28;20038;-50
2024/01/31 02:27:57;;;;;;;3.33;0.98;;;;;;;25.89;33.06;103422.69;5070246;28;20033;-47
2024/01/31 02:30:23;;;;;;;2.53;1.00;;;;;;;25.89;32.88;103425.47;5075945;28;20023;-46
2024/01/31 02:32:48;;;;;;;2.70;1.10;;;;;;;25.91;33.08;103412.16;5084357;28;20550;-47
2024/01/31 02:35:14;;;;;;;1.15;0.90;;;;;;;25.89;33.13;103405.19;5090200;28;20032;-48
2024/01/31 02:37:43;;;;;;;1.13;0.80;;;;;;;25.77;33.00;103408.19;5077776;28;20043;-46
2024/01/31 02:40:09;;;;;;;1.45;0.88;;;;;;;25.74;33.00;103400.41;5083503;28;20116;-44
2024/01/31 02:42:34;;;;;;;2.53;1.17;;;;;;;25.78;32.84;103391.25;5077704;28;20495;-44
2024/01/31 02:44:59;;;;;;;1.52;0.90;;;;;;;25.85;33.08;103398.50;5087976;28;20031;-42
2024/01/31 02:47:25;;;;;;;2.05;0.90;;;;;;;25.76;32.85;103396.25;5069517;28;20448;-46
2024/01/31 02:49:50;;;;;;;1.95;0.85;;;;;;;25.74;33.28;103386.53;5085855;28;20012;-46
2024/01/31 02:52:15;;;;;;;0.93;0.70;;;;;;;25.83;32.84;103395.19;5087429;28;20031;-44
2024/01/31 02:54:41;;;;;;;3.50;0.80;;;;;;;25.78;33.24;103396.81;5084175;28;20111;-44
2024/01/31 02:57:07;;;;;;;2.90;0.90;;;;;;;25.77;33.08;103386.78;5058392;28;20473;-46
2024/01/31 02:59:32;;;;;;;1.60;0.85;;;;;;;25.82;32.93;103374.88;5073192;28;20024;-47
2024/01/31 03:01:58;;;;;;;1.40;1.08;;;;;;;25.84;33.13;103374.63;5084869;28;20060;-47
2024/01/31 03:04:24;;;;;;;1.15;0.70;;;;;;;25.82;32.68;103366.53;5081611;28;20036;-47
2024/01/31 03:06:49;;;;;;;1.15;0.80;;;;;;;25.85;32.76;103367.94;5087281;28;20039;-49
2024/01/31 03:09:15;;;;;;;1.33;0.90;;;;;;;25.81;32.84;103366.81;5083840;28;20125;-47
2024/01/31 03:11:40;;;;;;;1.50;0.60;;;;;;;25.86;32.96;103372.41;5084037;28;20102;-45
2024/01/31 03:14:05;;;;;;;1.48;0.90;;;;;;;25.83;33.15;103376.56;5076735;28;20107;-45
2024/01/31 03:16:31;;;;;;;4.03;1.23;;;;;;;25.79;33.09;103372.66;5073017;28;20032;-46
2024/01/31 03:18:58;;;;;;;1.48;0.90;;;;;;;25.67;33.20;103372.84;5084484;28;20073;-43
2024/01/31 03:21:24;;;;;;;1.15;0.80;;;;;;;25.73;33.06;103365.41;5088055;28;20040;-44
2024/01/31 03:23:49;;;;;;;1.95;0.98;;;;;;;25.69;32.98;103370.66;5055309;28;20493;-44
2024/01/31 03:26:15;;;;;;;1.67;0.80;;;;;;;25.71;33.20;103367.59;5075129;28;20035;-46
2024/01/31 03:28:40;;;;;;;1.48;0.85;;;;;;;25.72;32.92;103377.63;5077627;28;20030;-49
2024/01/31 03:31:06;;;;;;;4.22;1.42;;;;;;;25.75;32.73;103372.34;5083960;28;20024;-50
2024/01/31 03:33:31;;;;;;;1.05;0.73;;;;;;;25.74;33.25;103373.47;5078313;28;20028;-47
2024/01/31 03:35:57;;;;;;;2.08;1.00;;;;;;;25.73;32.77;103382.06;5087017;28;20058;-51
2024/01/31 03:38:22;;;;;;;1.50;0.80;;;;;;;25.74;32.97;103378.19;5077016;28;20028;-51
2024/01/31 03:40:48;;;;;;;2.05;0.88;;;;;;;25.76;33.04;103379.59;5087387;28;20031;-49
2024/01/31 03:43:13;;;;;;;1.42;0.70;;;;;;;25.67;33.20;103372.84;5077814;28;20036;-49
2024/01/31 03:45:39;;;;;;;1.45;1.00;;;;;;;25.68;33.18;103368.97;5087353;28;20034;-50
2024/01/31 03:48:04;;;;;;;2.38;1.25;;;;;;;25.69;33.16;103361.47;5075391;28;20031;-51
2024/01/31 03:50:30;;;;;;;1.60;0.70;;;;;;;25.68;33.06;103357.88;5066052;28;20038;-49
2024/01/31 03:52:55;;;;;;;0.95;0.57;;;;;;;25.73;33.09;103365.41;5081985;28;20017;-43
2024/01/31 03:55:21;;;;;;;1.73;0.90;;;;;;;25.73;32.98;103363.44;5084465;28;20028;-44
2024/01/31 03:57:46;;;;;;;2.85;1.08;;;;;;;25.72;32.85;103366.50;5081312;28;20030;-45
2024/01/31 04:00:12;;;;;;;1.55;0.95;;;;;;;25.71;32.90;103362.88;5073858;28;20040;-45
2024/01/31 04:02:37;;;;;;;2.15;1.25;;;;;;;25.74;33.12;103365.13;5085998;28;20040;-46
2024/01/31 04:05:03;;;;;;;1.90;0.80;;;;;;;25.75;32.85;103365.94;5080268;28;20023;-46
2024/01/31 04:07:28;;;;;;;1.35;0.80;;;;;;;25.71;33.08;103373.16;5082303;28;20032;-45
2024/01/31 04:09:54;;;;;;;2.78;1.02;;;;;;;25.64;33.32;103373.41;5066012;28;20107;-46
2024/01/31 04:12:20;;;;;;;2.25;0.90;;;;;;;25.60;33.03;103367.56;5069208;28;20048;-46
2024/01/31 04:14:45;;;;;;;1.33;0.85;;;;;;;25.71;33.21;103375.94;5076437;28;20275;-47
2024/01/31 04:17:11;;;;;;;1.02;0.88;;;;;;;25.62;33.00;103364.50;5076929;28;20069;-49
2024/01/31 04:19:36;;;;;;;6.35;0.90;;;;;;;25.59;33.33;103363.09;5084854;28;20033;-42
2024/01/31 04:22:02;;;;;;;3.88;0.93;;;;;;;25.63;33.21;103367.00;5074921;28;20143;-43
2024/01/31 04:24:27;;;;;;;2.35;1.23;;;;;;;25.57;32.87;103370.84;5083345;28;20039;-41
2024/01/31 04:26:53;;;;;;;1.90;0.90;;;;;;;25.55;32.88;103367.50;5075247;28;20059;-51
2024/01/31 04:29:18;;;;;;;2.90;1.15;;;;;;;25.52;33.01;103365.28;5073540;28;20024;-45
2024/01/31 04:31:44;;;;;;;2.28;1.10;;;;;;;25.52;32.89;103359.72;5056612;28;20024;-47
2024/01/31 04:34:09;;;;;;;2.60;0.93;;;;;;;25.47;32.63;103363.31;5081576;28;20016;-45
2024/01/31 04:36:35;;;;;;;1.15;1.00;;;;;;;25.49;33.01;103359.44;5082721;28;20456;-48
2024/01/31 04:39:01;;;;;;;2.88;0.90;;;;;;;25.47;33.33;103359.72;5075533;28;20032;-49
2024/01/31 04:41:27;;;;;;;1.10;0.73;;;;;;;25.49;33.20;103360.25;5084547;28;20036;-51
2024/01/31 04:43:53;;;;;;;2.58;1.00;;;;;;;25.47;33.23;103363.31;5086965;28;20492;-50
2024/01/31 04:46:19;;;;;;;1.40;0.90;;;;;;;25.46;33.15;103355.25;5084709;28;20016;-50
2024/01/31 04:48:45;;;;;;;2.05;0.90;;;;;;;25.49;33.18;103348.31;5084137;28;20043;-45
2024/01/31 04:51:10;;;;;;;1.77;0.80;;;;;;;25.44;33.10;103349.97;5080841;28;20023;-47
2024/01/31 04:53:35;;;;;;;1.85;0.80;;;;;;;25.47;32.93;103351.38;5078299;28;20059;-49
2024/01/31 04:56:01;;;;;;;1.08;0.60;;;;;;;25.45;33.19;103350.81;5069102;28;20107;-48
2024/01/31 04:58:26;;;;;;;2.30;0.95;;;;;;;25.47;33.11;103362.47;5083361;28;20031;-48
2024/01/31 05:00:51;;;;;;;1.73;0.98;;;;;;;25.51;33.19;103358.06;5072067;28;20374;-51
2024/01/31 05:03:17;;;;;;;1.02;0.93;;;;;;;25.52;32.79;103361.66;5084319;28;20105;-48
2024/01/31 05:05:42;;;;;;;1.58;0.88;;;;;;;25.49;33.02;103359.44;5080682;28;20028;-48
2024/01/31 05:08:08;;;;;;;1.40;0.90;;;;;;;25.55;32.84;103353.63;5081497;28;20043;-45
2024/01/31 05:10:34;;;;;;;0.77;0.77;;;;;;;25.63;32.96;103346.75;5083548;28;20067;-47
2024/01/31 05:13:00;;;;;;;0.90;0.75;;;;;;;25.74;32.78;103345.69;5080742;28;20536;-47
2024/01/31 05:15:25;;;;;;;0.93;0.82;;;;;;;25.85;32.43;103354.06;5077281;28;20040;-45
2024/01/31 05:17:51;;;;;;;1.52;0.80;;;;;;;25.94;32.59;103344.09;5073241;28;20551;-44
2024/01/31 05:20:16;;;;;;;2.60;0.70;;;;;;;26.14;32.43;103350.88;5079378;28;20030;-44
2024/01/31 05:22:42;;;;;;;1.38;0.95;;;;;;;26.31;32.02;103348.69;5063400;28;20701;-45
2024/01/31 05:25:08;;;;;;;0.70;0.70;;;;;;;26.50;31.91;103357.38;5079963;28;20104;-45
2024/01/31 05:27:33;;;;;;;0.88;0.80;;;;;;;26.61;31.86;103349.03;5067451;28;20123;-46
2024/01/31 05:29:59;;;;;;;1.00;0.82;;;;;;;26.78;31.75;103346.00;5085864;28;20020;-45
2024/01/31 05:32:24;;;;;;;1.42;0.73;;;;;;;26.97;31.40;103340.75;5079866;28;20106;-44
2024/01/31 05:34:49;;;;;;;2.67;1.20;;;;;;;27.14;31.47;103329.31;5082996;28;20359;-46
2024/01/31 05:37:15;;;;;;;1.33;0.65;;;;;;;27.35;31.29;103316.19;5071197;28;20374;-44
2024/01/31 05:39:40;;;;;;;1.25;0.80;;;;;;;27.42;31.34;103305.63;5076377;28;20533;-41
2024/01/31 05:42:05;;;;;;;2.15;0.68;;;;;;;27.47;31.46;103299.22;5084869;28;20028;-45
2024/01/31 05:44:31;;;;;;;1.00;0.85;;;;;;;27.60;31.17;103297.75;5086762;28;20024;-46
2024/01/31 05:46:56;;;;;;;0.98;0.80;;;;;;;27.65;31.06;103293.00;5064385;28;20117;-47
2024/01/31 05:49:22;;;;;;;0.60;0.60;;;;;;;27.65;31.55;103279.06;5086420;28;20430;-47
2024/01/31 05:51:47;;;;;;;0.68;0.60;;;;;;;27.77;31.21;103281.50;5076054;28;20062;-47
2024/01/31 05:54:13;;;;;;;1.25;1.02;;;;;;;27.76;31.36;103274.28;5061909;28;20051;-45
2024/01/31 05:56:39;;;;;;;1.52;0.68;;;;;;;27.79;30.90;103278.47;5086036;28;20034;-45
2024/01/31 05:59:05;;;;;;;0.95;0.80;;;;;;;27.62;31.23;103271.28;5069609;28;20048;-46
2024/01/31 06:01:30;;;;;;;0.80;0.80;;;;;;;27.45;31.19;103279.97;5075135;28;20416;-49
2024/01/31 06:03:55;;;;;;;2.92;0.90;;;;;;;27.37;31.60;103266.63;5076031;28;20024;-44
2024/01/31 06:06:21;;;;;;;1.30;0.90;;;;;;;27.31;31.49;103274.16;5073858;28;20018;-42
2024/01/31 06:08:46;;;;;;;0.80;0.80;;;;;;;27.26;31.79;103290.88;5088452;28;20419;-42
2024/01/31 06:11:12;;;;;;;0.93;0.75;;;;;;;27.21;31.60;103302.00;5081447;28;20016;-43
2024/01/31 06:13:38;;;;;;;1.60;0.93;;;;;;;27.18;31.67;103305.38;5087254;28;20028;-41
2024/01/31 06:16:04;;;;;;;1.73;0.98;;;;;;;27.12;31.73;103315.66;5064801;28;20036;-40
2024/01/31 06:18:34;;;;;;;1.33;0.90;;;;;;;27.05;31.79;103321.53;5063609;28;20024;-48
2024/01/31 06:21:02;;;;;;;3.10;0.88;;;;;;;27.00;31.76;103332.66;5070848;28;20032;-45
2024/01/31 06:23:28;;;;;;;1.63;0.90;;;;;;;26.93;31.60;103337.69;5061754;28;20040;-45
2024/01/31 06:25:53;;;;;;;1.08;0.90;;;;;;;26.90;31.57;103338.22;5088553;28;20089;-47
2024/01/31 06:28:19;;;;;;;1.17;0.80;;;;;;;26.81;31.95;103339.91;5088841;28;20024;-46
2024/01/31 06:30:45;;;;;;;0.85;0.63;;;;;;;26.75;32.08;103341.84;5088586;28;20067;-41
2024/01/31 06:33:14;;;;;;;1.00;0.90;;;;;;;26.66;32.12;103349.88;5086547;28;20503;-41
2024/01/31 06:35:41;;;;;;;1.77;0.77;;;;;;;26.61;31.92;103366.56;5083791;28;20107;-42
2024/01/31 06:38:07;;;;;;;1.13;0.80;;;;;;;26.55;31.89;103368.50;5076343;28;20101;-44
2024/01/31 06:40:32;;;;;;;1.50;1.00;;;;;;;26.68;31.85;103372.69;5070639;28;20051;-44
2024/01/31 06:42:58;;;;;;;0.82;0.60;;;;;;;26.68;31.81;103388.53;5089501;28;20512;-42
2024/01/31 06:45:26;;;;;;;1.40;0.95;;;;;;;26.75;31.91;103395.50;5087780;28;20032;-49
2024/01/31 06:47:52;;;;;;;1.00;0.90;;;;;;;26.78;31.54;103405.28;5084335;28;20036;-50
2024/01/31 06:50:17;;;;;;;1.65;0.90;;;;;;;26.81;31.52;103403.88;5063476;28;20020;-46
2024/01/31 06:52:43;;;;;;;0.93;0.80;;;;;;;26.80;31.82;103399.44;5054366;28;20051;-49
2024/01/31 06:55:09;;;;;;;1.27;0.90;;;;;;;26.84;31.61;103398.59;5054032;28;20413;-50
2024/01/31 06:57:34;;;;;;;0.80;0.80;;;;;;;26.75;31.70;103394.69;5053530;28;20023;-46
2024/01/31 07:00:00;;;;;;;1.27;0.90;;;;;;;26.68;31.92;103397.72;5077109;28;20511;-49
2024/01/31 07:02:26;;;;;;;1.40;1.00;;;;;;;26.56;32.13;103394.34;5079275;28;20245;-46
2024/01/31 07:04:51;;;;;;;2.50;1.10;;;;;;;26.43;31.93;103392.94;5074653;28;20486;-46
2024/01/31 07:07:17;;;;;;;1.63;0.90;;;;;;;26.40;31.91;103396.25;5069931;28;20039;-47
2024/01/31 07:09:42;;;;;;;2.15;0.90;;;;;;;26.34;32.20;103391.78;5058845;28;20024;-49
2024/01/31 07:12:08;;;;;;;1.63;0.90;;;;;;;26.29;31.94;103375.09;5084131;28;20034;-49
2024/01/31 07:14:33;;;;;;;2.65;1.13;;;;;;;26.29;32.27;103384.28;5085868;28;20028;-48
2024/01/31 07:16:58;;;;;;;2.20;0.90;;;;;;;26.29;32.11;103392.63;5082153;28;20425;-51
2024/01/31 07:19:24;;;;;;;1.63;0.93;;;;;;;26.32;32.20;103392.06;5085744;28;20023;-45
2024/01/31 07:21:49;;;;;;;3.05;1.10;;;;;;;26.34;32.09;103392.63;5053506;28;20025;-49
2024/01/31 07:24:15;;;;;;;3.78;1.15;;;;;;;26.35;31.72;103387.91;5073074;28;20028;-46
2024/01/31 07:26:40;;;;;;;2.80;1.00;;;;;;;26.34;31.82;103389.84;5082126;28;20032;-48
2024/01/31 07:29:08;;;;;;;1.85;0.90;;;;;;;26.38;32.09;103401.25;5079420;28;20111;-48
2024/01/31 07:31:33;;;;;;;3.17;0.95;;;;;;;26.48;31.81;103398.50;5066670;28;20034;-48
2024/01/31 07:33:59;;;;;;;2.17;1.10;;;;;;;26.52;31.79;103401.56;5083213;28;20099;-47
2024/01/31 07:36:24;;;;;;;1.83;1.02;;;;;;;26.42;31.87;103405.16;5079589;28;20051;-47
2024/01/31 07:38:49;;;;;;;1.30;0.90;;;;;;;26.33;31.84;103406.81;5080760;28;20324;-51
2024/01/31 07:41:15;;;;;;;1.52;0.85;;;;;;;26.27;31.96;103390.09;5081107;28;20538;-47
2024/01/31 07:43:41;;;;;;;0.70;0.70;;;;;;;26.23;31.96;103388.97;5085322;28;20465;-44
2024/01/31 07:46:07;;;;;;;1.48;0.93;;;;;;;26.23;32.07;103388.97;5070480;28;20544;-49
2024/01/31 07:48:32;;;;;;;1.73;1.10;;;;;;;26.18;32.32;103382.56;5085721;28;20059;-48
2024/01/31 07:51:01;;;;;;;1.88;1.10;;;;;;;26.25;32.00;103383.16;5086742;28;20031;-47
2024/01/31 07:53:27;;;;;;;2.38;0.93;;;;;;;26.36;32.01;103378.47;5084970;28;20074;-50
2024/01/31 07:55:52;;;;;;;1.75;1.27;;;;;;;26.48;31.78;103372.66;5083499;28;20469;-52
2024/01/31 07:58:17;;;;;;;1.55;0.98;;;;;;;26.56;31.57;103363.75;5084103;28;20036;-45
2024/01/31 08:00:43;;;;;;;1.45;1.05;;;;;;;26.59;31.67;103363.22;5087377;28;20236;-49
2024/01/31 08:03:08;;;;;;;1.50;1.02;;;;;;;26.67;31.58;103359.03;5080835;28;20044;-49
2024/01/31 08:05:34;;;;;;;0.88;0.70;;;;;;;26.68;31.35;103350.44;5086942;28;20031;-47
2024/01/31 08:07:59;;;;;;;3.13;0.90;;;;;;;26.74;31.47;103354.94;5077737;28;20072;-48
2024/01/31 08:10:24;;;;;;;1.77;1.00;;;;;;;26.77;31.41;103347.13;5087850;28;20595;-49
2024/01/31 08:12:50;;;;;;;1.50;0.80;;;;;;;26.86;31.20;103348.25;5084899;28;20028;-49
2024/01/31 08:15:16;;;;;;;2.58;1.00;;;;;;;26.88;31.21;103338.50;5083245;28;20089;-48
2024/01/31 08:17:41;;;;;;;1.63;0.95;;;;;;;26.82;31.11;103339.63;5086777;28;20488;-47
2024/01/31 08:20:07;;;;;;;4.78;1.23;;;;;;;26.76;30.93;103324.03;5081564;28;20119;-48
2024/01/31 08:22:33;;;;;;;2.13;0.95;;;;;;;26.70;31.32;103317.59;5079521;28;20040;-46
2024/01/31 08:24:59;;;;;;;1.50;0.80;;;;;;;26.67;31.45;103317.31;5076744;28;20078;-48
2024/01/31 08:27:25;;;;;;;1.65;0.68;;;;;;;26.66;31.17;103316.50;5080322;28;20040;-47
2024/01/31 08:29:51;;;;;;;3.58;0.98;;;;;;;26.58;31.30;103306.78;5084728;28;20032;-48
2024/01/31 08:32:17;;;;;;;3.78;0.82;;;;;;;26.57;31.35;103307.03;5068396;28;20036;-49
2024/01/31 08:34:42;;;;;;;1.15;0.80;;;;;;;26.52;31.44;103295.91;5086756;28;20027;-48
2024/01/31 08:37:08;;;;;;;1.52;0.85;;;;;;;26.47;31.44;103293.94;5086172;28;20031;-46
2024/01/31 08:39:33;;;;;;;2.38;1.15;;;;;;;26.46;31.40;103283.13;5073035;28;20122;-48
2024/01/31 08:41:59;;;;;;;2.05;1.00;;;;;;;26.42;31.52;103285.63;5076470;28;20115;-47
2024/01/31 08:44:24;;;;;;;0.85;0.85;;;;;;;26.36;31.28;103289.50;5086938;28;20576;-49
2024/01/31 08:46:51;;;;;;;2.15;1.10;;;;;;;26.33;31.61;103285.31;5084672;28;20024;-47
2024/01/31 08:49:16;;;;;;;0.95;0.88;;;;;;;26.28;31.47;103285.31;5087857;28;20024;-46
2024/01/31 08:51:41;;;;;;;1.15;1.00;;;;;;;26.32;31.71;103277.28;5066542;28;20023;-48
2024/01/31 08:54:07;;;;;;;1.20;1.10;;;;;;;26.30;31.52;103276.72;5066479;28;20028;-49
2024/01/31 08:56:35;;;;;;;2.38;0.98;;;;;;;26.29;31.57;103275.03;5074197;28;20552;-47
2024/01/31 08:59:01;;;;;;;2.05;0.98;;;;;;;26.29;31.52;103275.88;5079467;28;20393;-49
2024/01/31 09:01:26;;;;;;;1.50;0.95;;;;;;;26.29;31.46;103277.81;5084666;28;20036;-47
2024/01/31 09:03:51;;;;;;;2.75;1.20;;;;;;;26.29;31.47;103278.66;5079817;28;20035;-46
2024/01/31 09:06:17;;;;;;;1.40;1.00;;;;;;;26.29;31.45;103284.22;5077104;28;20374;-46
2024/01/31 09:08:43;;;;;;;1.52;1.20;;;;;;;26.37;31.32;103280.06;5082945;28;20115;-51
2024/01/31 09:11:08;;;;;;;2.72;1.30;;;;;;;26.43;31.21;103276.16;5084378;28;20344;-45
2024/01/31 09:13:35;;;;;;;1.65;1.23;;;;;;;26.37;31.65;103271.72;5079966;28;20032;-46
2024/01/31 09:16:01;;;;;;;2.50;1.25;;;;;;;26.37;31.37;103264.19;5083974;28;20199;-48
2024/01/31 09:18:27;;;;;;;1.55;1.38;;;;;;;26.46;31.50;103270.03;5063323;28;20024;-46
2024/01/31 09:20:52;;;;;;;1.45;1.10;;;;;;;26.55;31.38;103273.13;5085082;28;20027;-48
2024/01/31 09:23:18;;;;;;;2.55;1.58;;;;;;;26.57;31.59;103270.88;5081746;28;20103;-49
2024/01/31 09:25:43;;;;;;;1.88;1.20;;;;;;;26.60;31.54;103270.34;5083536;28;20309;-45
2024/01/31 09:28:09;;;;;;;5.10;1.33;;;;;;;26.62;31.54;103273.66;5082999;28;20027;-45
2024/01/31 09:30:34;;;;;;;2.90;1.70;;;;;;;26.51;31.48;103261.72;5085719;28;20024;-49
2024/01/31 09:32:59;;;;;;;3.05;1.73;;;;;;;26.51;31.72;103256.16;5057223;28;20024;-44
2024/01/31 09:35:26;;;;;;;3.20;1.88;;;;;;;26.59;31.59;103263.09;5078382;28;20492;-46
2024/01/31 09:37:52;;;;;;;4.90;2.00;;;;;;;26.56;31.35;103266.44;5072644;28;20385;-44
2024/01/31 09:40:19;;;;;;;4.00;2.15;;;;;;;26.57;31.45;103276.44;5080813;28;20028;-44
2024/01/31 09:42:45;;;;;;;7.25;2.15;;;;;;;26.54;31.65;103288.13;5060483;28;20295;-44
2024/01/31 09:45:14;;;;;;;6.68;2.58;;;;;;;26.55;31.72;103290.63;5067787;28;20072;-44
2024/01/31 09:47:40;;;;;;;7.32;2.17;;;;;;;26.56;31.51;103291.44;5085709;28;20555;-45
2024/01/31 09:50:07;;;;;;;6.43;2.72;;;;;;;26.56;31.81;103291.44;5069753;28;20035;-45
2024/01/31 09:52:35;;;;;;;4.25;2.33;;;;;;;26.63;31.67;103294.78;5090070;28;20032;-45
2024/01/31 09:55:00;;;;;;;9.23;2.75;;;;;;;26.67;31.72;103289.50;5086130;28;20686;-45
2024/01/31 09:57:27;;;;;;;5.47;2.70;;;;;;;26.70;31.51;103287.00;5079979;28;20025;-44
2024/01/31 09:59:55;;;;;;;4.97;2.38;;;;;;;26.69;31.44;103290.91;5078448;28;20032;-46
2024/01/31 10:02:21;;;;;;;4.30;2.53;;;;;;;26.69;31.53;103299.25;5086275;28;20036;-45
2024/01/31 10:04:48;;;;;;;4.22;2.33;;;;;;;26.61;31.87;103298.97;5084579;28;20511;-46
2024/01/31 10:07:29;;;;;;;5.70;2.50;;;;;;;26.61;31.65;103291.47;5059276;28;20039;-46
2024/01/31 10:09:56;;;;;;;6.65;2.33;;;;;;;26.56;31.73;103297.88;5078854;28;20037;-49
2024/01/31 10:12:22;;;;;;;3.90;2.20;;;;;;;26.62;31.53;103300.63;5081311;28;20023;-48
2024/01/31 10:14:48;;;;;;;4.55;2.22;;;;;;;26.65;31.75;103300.09;5087531;28;20107;-47
2024/01/31 10:17:14;;;;;;;7.55;2.22;;;;;;;26.59;31.51;103307.59;5084735;28;20520;-47
2024/01/31 10:19:41;;;;;;;6.20;2.30;;;;;;;26.58;31.75;103303.13;5088696;28;20030;-46
2024/01/31 10:22:12;;;;;;;5.22;2.50;;;;;;;26.59;31.68;103293.69;5071044;28;20089;-48
2024/01/31 10:24:47;;;;;;;5.75;2.70;;;;;;;26.51;31.93;103297.88;5048181;28;20539;-52
2024/01/31 10:27:14;;;;;;;8.75;3.10;;;;;;;26.44;31.60;103288.97;5047239;28;20032;-47
2024/01/31 10:29:39;;;;;;;8.27;2.90;;;;;;;26.38;31.94;103276.16;5077859;28;20026;-48
2024/01/31 10:32:06;;;;;;;7.25;3.13;;;;;;;26.31;31.90;103273.66;5087391;28;20031;-46
2024/01/31 10:34:32;;;;;;;7.45;3.22;;;;;;;26.27;31.51;103267.81;5060563;28;20073;-48
2024/01/31 10:36:58;;;;;;;7.03;2.83;;;;;;;26.24;31.75;103260.03;5065940;28;20036;-49
2024/01/31 10:39:24;;;;;;;6.07;2.80;;;;;;;26.23;31.84;103251.97;5078579;28;20024;-46
2024/01/31 10:41:50;;;;;;;8.10;3.75;;;;;;;26.27;32.02;103250.31;5074491;28;20036;-49
2024/01/31 10:44:15;;;;;;;4.93;2.92;;;;;;;26.40;31.62;103254.47;5080155;28;20020;-45
2024/01/31 10:46:43;;;;;;;4.60;2.65;;;;;;;26.42;32.05;103241.97;5085461;28;20450;-46
2024/01/31 10:49:09;;;;;;;5.60;2.40;;;;;;;26.50;31.91;103240.59;5063788;28;20336;-46
2024/01/31 10:51:35;;;;;;;5.05;2.53;;;;;;;26.55;31.56;103229.44;5086215;28;20392;-47
2024/01/31 10:54:02;;;;;;;7.15;3.15;;;;;;;26.53;31.58;103228.88;5078999;28;20097;-48
2024/01/31 10:56:28;;;;;;;4.18;2.20;;;;;;;26.57;31.42;103210.56;5087536;28;20435;-46
2024/01/31 10:58:57;;;;;;;4.85;2.30;;;;;;;26.70;31.72;103213.88;5083418;28;20115;-48
2024/01/31 11:01:28;;;;;;;7.25;2.28;;;;;;;26.78;31.69;103204.16;5088856;28;20069;-47
2024/01/31 11:03:53;;;;;;;5.63;2.60;;;;;;;26.80;31.33;103202.75;5084526;28;20036;-49
2024/01/31 11:06:19;;;;;;;3.88;2.70;;;;;;;26.87;31.72;103192.16;5061008;28;20063;-48
2024/01/31 11:08:44;;;;;;;5.05;2.65;;;;;;;26.91;31.54;103178.53;5084361;28;20566;-49
2024/01/31 11:11:13;;;;;;;3.47;2.72;;;;;;;26.88;31.57;103177.16;5086308;28;20051;-48
2024/01/31 11:13:38;;;;;;;4.00;2.38;;;;;;;26.96;31.48;103172.13;5061977;28;20520;-45
2024/01/31 11:16:04;;;;;;;4.38;2.63;;;;;;;26.98;31.18;103167.94;5085058;28;20051;-46
2024/01/31 11:18:31;;;;;;;5.80;2.67;;;;;;;26.97;31.39;103162.66;5079865;28;20392;-48